createdAt,value
2023-04-17T00:01:07.483Z,100555.97
2023-04-17T00:03:14.466Z,100557.88
2023-04-17T00:05:17.518Z,100549.69
2023-04-17T00:07:22.908Z,100551.03
2023-04-17T00:09:26.401Z,100554.81
2023-04-17T00:11:29.027Z,100557.53
2023-04-17T00:13:32.764Z,100555.09
2023-04-17T00:15:35.592Z,100554.25
2023-04-17T00:17:38.320Z,100555.34
2023-04-17T00:19:41.118Z,100543.31
2023-04-17T00:21:43.956Z,100551.47
2023-04-17T00:23:46.678Z,100552.56
2023-04-17T00:25:49.672Z,100559.41
2023-04-17T00:27:52.409Z,100556.91
2023-04-17T00:29:55.107Z,100558.25
2023-04-17T00:31:57.952Z,100550.84
2023-04-17T00:34:01.752Z,100541.00
2023-04-17T00:36:04.826Z,100547.50
2023-04-17T00:38:09.420Z,100542.84
2023-04-17T00:40:12.698Z,100549.09
2023-04-17T00:42:15.593Z,100559.72
2023-04-17T00:44:18.256Z,100549.41
2023-04-17T00:46:21.223Z,100550.00
2023-04-17T00:48:24.444Z,100558.97
2023-04-17T00:50:30.103Z,100552.47
2023-04-17T00:52:32.898Z,100550.81
2023-04-17T00:54:36.004Z,100555.44
2023-04-17T00:56:38.976Z,100556.25
2023-04-17T00:58:41.910Z,100557.34
2023-04-17T01:00:45.180Z,100557.06
2023-04-17T01:02:48.563Z,100559.22
2023-04-17T01:04:51.472Z,100553.22
2023-04-17T01:06:54.164Z,100559.16
2023-04-17T01:08:57.168Z,100560.50
2023-04-17T01:10:59.943Z,100568.94
2023-04-17T01:13:04.291Z,100564.78
2023-04-17T01:15:07.340Z,100560.94
2023-04-17T01:17:10.670Z,100559.81
2023-04-17T01:19:15.709Z,100561.72
2023-04-17T01:21:18.373Z,100559.22
2023-04-17T01:23:21.213Z,100561.13
2023-04-17T01:25:24.518Z,100557.84
2023-04-17T01:27:27.234Z,100552.66
2023-04-17T01:29:30.881Z,100552.06
2023-04-17T01:31:33.613Z,100549.63
2023-04-17T01:33:36.338Z,100550.69
2023-04-17T01:35:38.957Z,100551.78
2023-04-17T01:37:41.690Z,100550.38
2023-04-17T01:39:44.507Z,100550.97
2023-04-17T01:41:47.224Z,100550.38
2023-04-17T01:43:50.458Z,100555.31
2023-04-17T01:45:53.223Z,100553.16
2023-04-17T01:47:56.103Z,100556.69
2023-04-17T01:49:58.832Z,100556.47
2023-04-17T01:52:01.639Z,100554.31
2023-04-17T01:54:04.508Z,100560.31
2023-04-17T01:56:08.315Z,100556.84
2023-04-17T01:58:11.200Z,100560.38
2023-04-17T02:00:14.878Z,100559.00
2023-04-17T02:02:17.770Z,100555.50
2023-04-17T02:04:20.643Z,100568.59
2023-04-17T02:06:23.520Z,100570.22
2023-04-17T02:08:27.302Z,100579.81
2023-04-17T02:10:30.843Z,100575.19
2023-04-17T02:12:33.778Z,100571.88
2023-04-17T02:14:36.991Z,100581.75
2023-04-17T02:16:45.882Z,100576.06
2023-04-17T02:18:49.685Z,100570.84
2023-04-17T02:20:52.497Z,100563.84
2023-04-17T02:22:55.845Z,100575.53
2023-04-17T02:24:58.695Z,100575.28
2023-04-17T02:27:02.145Z,100568.78
2023-04-17T02:29:05.107Z,100568.50
2023-04-17T02:31:08.991Z,100569.34
2023-04-17T02:33:12.318Z,100571.81
2023-04-17T02:35:15.077Z,100576.16
2023-04-17T02:37:17.770Z,100566.69
2023-04-17T02:39:20.526Z,100572.94
2023-04-17T02:41:23.417Z,100568.91
2023-04-17T02:43:26.262Z,100569.13
2023-04-17T02:45:29.224Z,100579.84
2023-04-17T02:47:32.021Z,100578.25
2023-04-17T02:49:34.782Z,100571.47
2023-04-17T02:51:37.617Z,100578.53
2023-04-17T02:53:40.294Z,100579.44
2023-04-17T02:55:43.061Z,100582.72
2023-04-17T02:57:45.800Z,100579.72
2023-04-17T02:59:48.694Z,100579.25
2023-04-17T03:01:51.363Z,100578.72
2023-04-17T03:03:54.264Z,100589.09
2023-04-17T03:05:58.147Z,100583.13
2023-04-17T03:08:00.978Z,100583.44
2023-04-17T03:10:04.023Z,100583.50
2023-04-17T03:12:07.477Z,100589.50
2023-04-17T03:14:10.354Z,100590.63
2023-04-17T03:16:13.231Z,100590.13
2023-04-17T03:18:16.007Z,100584.97
2023-04-17T03:20:19.022Z,100586.38
2023-04-17T03:22:21.995Z,100581.50
2023-04-17T03:24:24.621Z,100588.59
2023-04-17T03:26:27.314Z,100578.59
2023-04-17T03:28:30.020Z,100586.81
2023-04-17T03:30:33.168Z,100590.38
2023-04-17T03:32:36.227Z,100587.13
2023-04-17T03:34:39.032Z,100598.09
2023-04-17T03:36:41.907Z,100591.84
2023-04-17T03:38:45.213Z,100601.41
2023-04-17T03:40:47.946Z,100594.34
2023-04-17T03:42:51.231Z,100589.19
2023-04-17T03:44:53.996Z,100591.13
2023-04-17T03:46:56.979Z,100596.09
2023-04-17T03:48:59.736Z,100591.75
2023-04-17T03:51:03.372Z,100590.41
2023-04-17T03:53:06.100Z,100597.00
2023-04-17T03:55:09.595Z,100596.44
2023-04-17T03:57:12.274Z,100597.31
2023-04-17T03:59:14.984Z,100597.91
2023-04-17T04:01:18.009Z,100601.50
2023-04-17T04:03:20.963Z,100600.72
2023-04-17T04:05:23.861Z,100606.19
2023-04-17T04:07:27.012Z,100596.63
2023-04-17T04:09:29.702Z,100595.59
2023-04-17T04:11:32.555Z,100606.00
2023-04-17T04:13:35.509Z,100610.66
2023-04-17T04:15:38.609Z,100608.25
2023-04-17T04:17:41.493Z,100607.44
2023-04-17T04:19:44.577Z,100613.22
2023-04-17T04:21:47.381Z,100608.56
2023-04-17T04:23:50.228Z,100620.59
2023-04-17T04:25:52.848Z,100608.03
2023-04-17T04:27:56.549Z,100605.59
2023-04-17T04:30:02.573Z,100613.00
2023-04-17T04:32:09.881Z,100603.75
2023-04-17T04:34:13.658Z,100610.28
2023-04-17T04:36:20.860Z,100614.97
2023-04-17T04:38:31.560Z,100613.31
2023-04-17T04:40:38.503Z,100599.69
2023-04-17T04:42:50.018Z,100601.06
2023-04-17T04:44:52.903Z,100614.72
2023-04-17T04:46:55.956Z,100608.72
2023-04-17T04:48:58.852Z,100607.88
2023-04-17T04:51:01.634Z,100606.56
2023-04-17T04:53:04.479Z,100610.91
2023-04-17T04:55:08.494Z,100607.91
2023-04-17T04:57:11.258Z,100604.09
2023-04-17T04:59:14.045Z,100612.00
2023-04-17T05:01:17.927Z,100605.44
2023-04-17T05:03:22.672Z,100604.34
2023-04-17T05:05:26.146Z,100610.34
2023-04-17T05:07:29.086Z,100611.16
2023-04-17T05:09:33.100Z,100614.16
2023-04-17T05:11:35.851Z,100607.56
2023-04-17T05:13:38.962Z,100608.09
2023-04-17T05:15:41.799Z,100614.41
2023-04-17T05:17:45.022Z,100615.44
2023-04-17T05:19:47.994Z,100616.53
2023-04-17T05:21:50.866Z,100609.66
2023-04-17T05:23:54.083Z,100611.84
2023-04-17T05:25:56.837Z,100613.72
2023-04-17T05:27:59.780Z,100617.81
2023-04-17T05:30:02.668Z,100623.53
2023-04-17T05:32:11.012Z,100613.66
2023-04-17T05:34:14.712Z,100615.53
2023-04-17T05:36:17.472Z,100619.06
2023-04-17T05:38:20.247Z,100625.06
2023-04-17T05:40:23.301Z,100638.44
2023-04-17T05:42:26.388Z,100628.56
2023-04-17T05:44:29.184Z,100635.63
2023-04-17T05:46:31.892Z,100640.78
2023-04-17T05:48:34.734Z,100624.53
2023-04-17T05:50:37.742Z,100635.19
2023-04-17T05:52:41.238Z,100633.53
2023-04-17T05:54:44.226Z,100624.44
2023-04-17T05:56:47.659Z,100633.69
2023-04-17T05:58:50.645Z,100630.38
2023-04-17T06:00:53.457Z,100630.88
2023-04-17T06:02:56.736Z,100624.78
2023-04-17T06:05:00.224Z,100631.56
2023-04-17T06:07:06.223Z,100624.34
2023-04-17T06:09:10.034Z,100623.41
2023-04-17T06:11:13.290Z,100624.47
2023-04-17T06:13:16.013Z,100627.72
2023-04-17T06:15:18.953Z,100613.72
2023-04-17T06:17:21.806Z,100630.38
2023-04-17T06:19:27.520Z,100622.91
2023-04-17T06:21:31.702Z,100619.06
2023-04-17T06:23:34.560Z,100611.50
2023-04-17T06:25:37.616Z,100621.34
2023-04-17T06:27:40.478Z,100610.84
2023-04-17T06:29:43.293Z,100617.63
2023-04-17T06:31:46.512Z,100619.47
2023-04-17T06:33:50.995Z,100617.50
2023-04-17T06:35:53.729Z,100609.72
2023-04-17T06:37:56.631Z,100621.09
2023-04-17T06:39:59.510Z,100620.66
2023-04-17T06:42:03.231Z,100616.06
2023-04-17T06:44:06.626Z,100608.69
2023-04-17T06:46:09.354Z,100614.53
2023-04-17T06:48:12.117Z,100610.22
2023-04-17T06:50:15.623Z,100608.44
2023-04-17T06:52:20.422Z,100601.94
2023-04-17T06:54:23.513Z,100602.66
2023-04-17T06:56:26.367Z,100601.97
2023-04-17T06:58:29.094Z,100604.81
2023-04-17T07:00:34.137Z,100595.88
2023-04-17T07:02:36.970Z,100598.25
2023-04-17T07:04:39.912Z,100596.22
2023-04-17T07:06:42.770Z,100595.59
2023-04-17T07:08:45.504Z,100595.00
2023-04-17T07:10:48.278Z,100597.56
2023-04-17T07:12:51.158Z,100595.72
2023-04-17T07:14:53.800Z,100597.16
2023-04-17T07:16:56.604Z,100594.16
2023-04-17T07:18:59.546Z,100601.91
2023-04-17T07:21:05.630Z,100585.47
2023-04-17T07:23:08.406Z,100589.63
2023-04-17T07:25:11.158Z,100599.63
2023-04-17T07:27:13.878Z,100594.28
2023-04-17T07:29:16.747Z,100585.28
2023-04-17T07:31:19.663Z,100588.81
2023-04-17T07:33:22.509Z,100585.22
2023-04-17T07:35:25.639Z,100587.44
2023-04-17T07:37:28.536Z,100591.47
2023-04-17T07:39:31.971Z,100584.50
2023-04-17T07:41:34.727Z,100589.56
2023-04-17T07:43:37.610Z,100586.69
2023-04-17T07:45:41.747Z,100582.84
2023-04-17T07:47:45.216Z,100591.88
2023-04-17T07:49:49.324Z,100588.00
2023-04-17T07:51:52.548Z,100594.38
2023-04-17T07:53:56.044Z,100585.47
2023-04-17T07:55:59.126Z,100584.19
2023-04-17T07:58:04.085Z,100577.56
2023-04-17T08:00:09.391Z,100578.25
2023-04-17T08:02:12.400Z,100572.13
2023-04-17T08:04:15.799Z,100574.78
2023-04-17T08:06:18.652Z,100580.66
2023-04-17T08:08:23.129Z,100582.63
2023-04-17T08:10:27.171Z,100564.88
2023-04-17T08:12:30.547Z,100567.00
2023-04-17T08:14:33.625Z,100568.47
2023-04-17T08:16:36.745Z,100561.75
2023-04-17T08:18:39.595Z,100562.75
2023-04-17T08:20:43.103Z,100566.66
2023-04-17T08:22:47.255Z,100563.25
2023-04-17T08:24:50.278Z,100557.88
2023-04-17T08:26:53.144Z,100550.72
2023-04-17T08:28:56.398Z,100563.25
2023-04-17T08:30:59.370Z,100564.53
2023-04-17T08:33:02.221Z,100563.72
2023-04-17T08:35:05.759Z,100557.88
2023-04-17T08:37:08.655Z,100557.22
2023-04-17T08:39:12.696Z,100558.69
2023-04-17T08:41:22.298Z,100558.84
2023-04-17T08:43:29.702Z,100561.31
2023-04-17T08:45:35.831Z,100560.78
2023-04-17T08:47:43.333Z,100560.63
2023-04-17T08:49:47.484Z,100554.56
2023-04-17T08:51:50.271Z,100564.50
2023-04-17T08:53:53.071Z,100548.84
2023-04-17T08:55:56.721Z,100551.06
2023-04-17T08:58:06.313Z,100545.72
2023-04-17T09:00:12.425Z,100549.03
2023-04-17T09:02:15.408Z,100542.03
2023-04-17T09:04:42.831Z,100541.41
2023-04-17T09:06:54.598Z,100547.06
2023-04-17T09:09:05.149Z,100534.19
2023-04-17T09:11:17.943Z,100539.69
2023-04-17T09:13:25.044Z,100536.94
2023-04-17T09:15:28.024Z,100546.31
2023-04-17T09:17:35.127Z,100541.31
2023-04-17T09:19:38.275Z,100523.97
2023-04-17T09:21:41.409Z,100527.69
2023-04-17T09:23:56.408Z,100530.09
2023-04-17T09:26:11.169Z,100530.69
2023-04-17T09:28:16.192Z,100526.97
2023-04-17T09:30:18.979Z,100524.34
2023-04-17T09:32:22.028Z,100522.81
2023-04-17T09:34:24.859Z,100533.31
2023-04-17T09:36:30.885Z,100516.56
2023-04-17T09:38:38.290Z,100525.13
2023-04-17T09:40:42.486Z,100532.03
2023-04-17T09:43:02.526Z,100532.91
2023-04-17T09:45:21.259Z,100519.31
2023-04-17T09:47:24.369Z,100513.72
2023-04-17T09:49:50.418Z,100519.59
2023-04-17T09:51:53.726Z,100517.41
2023-04-17T09:53:59.665Z,100515.53
2023-04-17T09:56:05.816Z,100513.97
2023-04-17T09:58:08.656Z,100516.97
2023-04-17T10:00:15.304Z,100524.56
2023-04-17T10:02:20.134Z,100512.47
2023-04-17T10:04:23.679Z,100523.00
2023-04-17T10:06:29.578Z,100521.94
2023-04-17T10:08:32.561Z,100515.00
2023-04-17T10:10:36.708Z,100521.75
2023-04-17T10:12:40.740Z,100520.50
2023-04-17T10:14:50.064Z,100525.25
2023-04-17T10:16:53.977Z,100526.38
2023-04-17T10:19:31.749Z,100518.81
2023-04-17T10:21:35.218Z,100512.06
2023-04-17T10:23:38.514Z,100513.22
2023-04-17T10:25:41.544Z,100528.34
2023-04-17T10:27:46.521Z,100517.22
2023-04-17T10:29:59.688Z,100500.66
2023-04-17T10:32:21.900Z,100497.66
2023-04-17T10:34:52.076Z,100496.72
2023-04-17T10:36:56.599Z,100493.88
2023-04-17T10:39:13.970Z,100499.50
2023-04-17T10:41:17.459Z,100494.03
2023-04-17T10:43:23.385Z,100498.75
2023-04-17T10:45:26.269Z,100495.72
2023-04-17T10:47:33.950Z,100501.50
2023-04-17T10:49:55.910Z,100487.94
2023-04-17T10:51:58.637Z,100485.78
2023-04-17T10:54:03.120Z,100487.84
2023-04-17T10:56:06.319Z,100488.31
2023-04-17T10:58:15.595Z,100489.75
2023-04-17T11:00:19.205Z,100492.19
2023-04-17T11:02:34.237Z,100486.16
2023-04-17T11:04:37.533Z,100488.53
2023-04-17T11:06:40.841Z,100468.13
2023-04-17T11:08:44.153Z,100481.09
2023-04-17T11:10:47.019Z,100481.09
2023-04-17T11:12:53.528Z,100467.91
2023-04-17T11:15:03.056Z,100472.44
2023-04-17T11:17:09.900Z,100469.97
2023-04-17T11:19:17.639Z,100471.88
2023-04-17T11:21:20.489Z,100470.53
2023-04-17T11:23:23.267Z,100460.44
2023-04-17T11:25:27.972Z,100466.56
2023-04-17T11:27:30.936Z,100467.75
2023-04-17T11:29:33.608Z,100466.38
2023-04-17T11:31:36.529Z,100459.00
2023-04-17T11:33:39.980Z,100460.97
2023-04-17T11:35:43.670Z,100454.22
2023-04-17T11:38:04.869Z,100452.00
2023-04-17T11:40:09.141Z,100457.88
2023-04-17T11:42:11.976Z,100457.03
2023-04-17T11:44:17.333Z,100454.28
2023-04-17T11:46:20.160Z,100450.50
2023-04-17T11:48:28.374Z,100459.78
2023-04-17T11:50:32.526Z,100452.84
2023-04-17T11:52:35.209Z,100447.00
2023-04-17T11:54:39.189Z,100451.47
2023-04-17T11:57:05.110Z,100437.53
2023-04-17T11:59:08.134Z,100440.94
2023-04-17T12:01:10.884Z,100436.91
2023-04-17T12:03:45.290Z,100434.56
2023-04-17T12:05:59.802Z,100441.41
2023-04-17T12:08:07.595Z,100431.25
2023-04-17T12:10:11.360Z,100441.78
2023-04-17T12:12:14.071Z,100430.00
2023-04-17T12:14:17.178Z,100422.44
2023-04-17T12:16:20.516Z,100427.56
2023-04-17T12:18:23.335Z,100424.97
2023-04-17T12:20:26.852Z,100424.16
2023-04-17T12:22:30.640Z,100420.53
2023-04-17T12:24:33.394Z,100421.13
2023-04-17T12:26:36.230Z,100416.91
2023-04-17T12:28:39.206Z,100422.16
2023-04-17T12:30:42.893Z,100407.31
2023-04-17T12:32:48.980Z,100415.31
2023-04-17T12:34:52.375Z,100417.06
2023-04-17T12:36:55.293Z,100409.72
2023-04-17T12:38:58.094Z,100419.81
2023-04-17T12:41:01.033Z,100412.28
2023-04-17T12:43:04.412Z,100415.97
2023-04-17T12:45:08.273Z,100413.09
2023-04-17T12:47:11.068Z,100417.03
2023-04-17T12:49:14.004Z,100404.84
2023-04-17T12:51:17.085Z,100404.38
2023-04-17T12:53:19.782Z,100401.22
2023-04-17T12:55:22.635Z,100396.38
2023-04-17T12:57:26.770Z,100403.06
2023-04-17T12:59:29.652Z,100397.44
2023-04-17T13:01:32.514Z,100398.63
2023-04-17T13:03:35.621Z,100393.13
2023-04-17T13:05:38.726Z,100398.63
2023-04-17T13:07:41.555Z,100394.31
2023-04-17T13:09:44.929Z,100396.81
2023-04-17T13:11:47.666Z,100385.03
2023-04-17T13:13:50.459Z,100398.41
2023-04-17T13:15:53.229Z,100389.56
2023-04-17T13:17:56.366Z,100391.63
2023-04-17T13:19:59.141Z,100392.06
2023-04-17T13:22:02.324Z,100391.59
2023-04-17T13:24:05.492Z,100386.06
2023-04-17T13:26:08.164Z,100381.09
2023-04-17T13:28:11.205Z,100376.56
2023-04-17T13:30:14.313Z,100382.63
2023-04-17T13:32:17.008Z,100374.38
2023-04-17T13:34:20.005Z,100375.31
2023-04-17T13:36:22.749Z,100378.28
2023-04-17T13:38:25.759Z,100374.09
2023-04-17T13:40:29.332Z,100370.22
2023-04-17T13:42:32.142Z,100372.44
2023-04-17T13:44:34.952Z,100364.38
2023-04-17T13:46:37.780Z,100362.00
2023-04-17T13:48:40.425Z,100361.13
2023-04-17T13:50:43.125Z,100358.00
2023-04-17T13:52:45.983Z,100354.91
2023-04-17T13:54:48.928Z,100358.91
2023-04-17T13:56:53.995Z,100357.91
2023-04-17T13:58:57.679Z,100350.00
2023-04-17T14:01:00.477Z,100343.81
2023-04-17T14:03:03.768Z,100355.56
2023-04-17T14:05:07.096Z,100351.53
2023-04-17T14:07:12.901Z,100347.88
2023-04-17T14:09:16.814Z,100349.63
2023-04-17T14:11:19.960Z,100334.22
2023-04-17T14:13:22.731Z,100349.84
2023-04-17T14:15:25.481Z,100340.13
2023-04-17T14:19:31.374Z,100347.53
2023-04-17T14:21:35.261Z,100340.38
2023-04-17T14:23:38.059Z,100338.69
2023-04-17T14:25:41.257Z,100331.34
2023-04-17T14:27:44.651Z,100327.75
2023-04-17T14:29:47.477Z,100334.66
2023-04-17T14:31:50.251Z,100327.97
2023-04-17T14:33:53.172Z,100338.56
2023-04-17T14:35:57.059Z,100340.81
2023-04-17T14:38:00.132Z,100335.28
2023-04-17T14:40:04.953Z,100327.91
2023-04-17T14:42:08.002Z,100331.56
2023-04-17T14:44:10.880Z,100331.69
2023-04-17T14:46:13.809Z,100330.06
2023-04-17T14:48:16.759Z,100317.69
2023-04-17T14:50:19.654Z,100332.03
2023-04-17T14:52:22.306Z,100333.66
2023-04-17T14:54:25.082Z,100328.84
2023-04-17T14:56:28.288Z,100328.16
2023-04-17T14:58:31.254Z,100327.34
2023-04-17T15:00:34.308Z,100335.09
2023-04-17T15:02:39.420Z,100329.41
2023-04-17T15:04:42.644Z,100337.75
2023-04-17T15:06:45.554Z,100332.63
2023-04-17T15:08:48.613Z,100322.66
2023-04-17T15:10:51.853Z,100330.22
2023-04-17T15:13:00.330Z,100332.66
2023-04-17T15:15:03.400Z,100336.16
2023-04-17T15:17:09.147Z,100341.13
2023-04-17T15:19:12.210Z,100334.31
2023-04-17T15:21:16.719Z,100334.56
2023-04-17T15:23:19.439Z,100332.50
2023-04-17T15:25:24.897Z,100340.50
2023-04-17T15:27:27.548Z,100343.41
2023-04-17T15:29:30.265Z,100331.69
2023-04-17T15:31:33.092Z,100332.06
2023-04-17T15:33:36.582Z,100333.59
2023-04-17T15:35:39.416Z,100338.84
2023-04-17T15:37:42.175Z,100325.09
2023-04-17T15:39:44.899Z,100334.97
2023-04-17T15:41:48.358Z,100338.38
2023-04-17T15:43:51.271Z,100336.72
2023-04-17T15:45:55.194Z,100333.94
2023-04-17T15:47:58.329Z,100328.94
2023-04-17T15:50:01.154Z,100336.69
2023-04-17T15:52:04.175Z,100333.03
2023-04-17T15:54:07.120Z,100330.97
2023-04-17T15:56:09.933Z,100330.06
2023-04-17T15:58:12.731Z,100336.09
2023-04-17T16:00:15.891Z,100335.81
2023-04-17T16:02:18.775Z,100340.25
2023-04-17T16:04:21.759Z,100342.22
2023-04-17T16:06:24.607Z,100338.03
2023-04-17T16:08:27.331Z,100334.34
2023-04-17T16:10:30.036Z,100334.16
2023-04-17T16:12:35.576Z,100336.13
2023-04-17T16:14:38.877Z,100332.22
2023-04-17T16:16:41.696Z,100342.47
2023-04-17T16:18:47.220Z,100331.41
2023-04-17T16:20:49.962Z,100339.72
2023-04-17T16:22:52.841Z,100335.97
2023-04-17T16:24:55.546Z,100343.63
2023-04-17T16:27:03.209Z,100336.31
2023-04-17T16:29:05.965Z,100340.34
2023-04-17T16:31:08.845Z,100332.41
2023-04-17T16:33:11.636Z,100335.63
2023-04-17T16:35:14.586Z,100337.72
2023-04-17T16:37:17.479Z,100336.25
2023-04-17T16:39:20.213Z,100336.72
2023-04-17T16:41:23.575Z,100337.69
2023-04-17T16:43:27.062Z,100332.63
2023-04-17T16:45:29.744Z,100329.22
2023-04-17T16:47:33.230Z,100327.38
2023-04-17T16:49:36.210Z,100333.84
2023-04-17T16:51:39.110Z,100334.81
2023-04-17T16:53:41.860Z,100330.91
2023-04-17T16:55:44.614Z,100328.59
2023-04-17T16:57:48.288Z,100329.84
2023-04-17T16:59:51.054Z,100328.88
2023-04-17T17:01:53.896Z,100332.09
2023-04-17T17:03:56.773Z,100334.97
2023-04-17T17:06:03.456Z,100328.47
2023-04-17T17:08:06.276Z,100331.97
2023-04-17T17:10:09.489Z,100337.63
2023-04-17T17:12:12.231Z,100333.88
2023-04-17T17:14:16.341Z,100331.75
2023-04-17T17:16:21.079Z,100334.81
2023-04-17T17:18:23.995Z,100331.09
2023-04-17T17:20:26.770Z,100327.31
2023-04-17T17:22:29.558Z,100319.50
2023-04-17T17:24:32.309Z,100323.50
2023-04-17T17:26:37.195Z,100332.72
2023-04-17T17:28:40.798Z,100325.41
2023-04-17T17:30:43.573Z,100326.34
2023-04-17T17:32:46.522Z,100329.69
2023-04-17T17:34:49.420Z,100319.44
2023-04-17T17:36:52.137Z,100331.28
2023-04-17T17:38:58.092Z,100327.00
2023-04-17T17:41:01.471Z,100324.38
2023-04-17T17:43:04.161Z,100325.28
2023-04-17T17:45:07.372Z,100327.53
2023-04-17T17:47:10.208Z,100322.38
2023-04-17T17:49:13.069Z,100321.03
2023-04-17T17:51:16.033Z,100323.56
2023-04-17T17:53:21.379Z,100319.19
2023-04-17T17:55:28.348Z,100326.63
2023-04-17T17:57:41.943Z,100325.81
2023-04-17T17:59:48.661Z,100318.19
2023-04-17T18:01:51.662Z,100321.22
2023-04-17T18:03:54.671Z,100321.22
2023-04-17T18:05:57.958Z,100324.00
2023-04-17T18:08:00.884Z,100329.50
2023-04-17T18:10:03.973Z,100326.44
2023-04-17T18:12:07.416Z,100325.63
2023-04-17T18:14:10.511Z,100318.19
2023-04-17T18:16:13.719Z,100319.63
2023-04-17T18:18:16.782Z,100321.06
2023-04-17T18:20:19.697Z,100312.81
2023-04-17T18:22:22.476Z,100312.59
2023-04-17T18:24:25.862Z,100313.22
2023-04-17T18:26:28.584Z,100318.50
2023-04-17T18:28:31.508Z,100317.41
2023-04-17T18:30:34.341Z,100317.69
2023-04-17T18:32:37.336Z,100315.28
2023-04-17T18:34:40.176Z,100306.19
2023-04-17T18:36:44.048Z,100308.44
2023-04-17T18:38:46.925Z,100308.75
2023-04-17T18:40:58.527Z,100312.94
2023-04-17T18:43:01.929Z,100306.13
2023-04-17T18:45:06.324Z,100296.53
2023-04-17T18:47:09.348Z,100305.91
2023-04-17T18:49:12.209Z,100297.66
2023-04-17T18:51:15.125Z,100296.03
2023-04-17T18:53:17.992Z,100300.69
2023-04-17T18:55:20.915Z,100295.53
2023-04-17T18:57:24.099Z,100289.00
2023-04-17T18:59:28.418Z,100291.75
2023-04-17T19:01:31.260Z,100290.44
2023-04-17T19:03:34.178Z,100286.38
2023-04-17T19:05:36.990Z,100283.09
2023-04-17T19:07:40.024Z,100291.47
2023-04-17T19:09:42.840Z,100283.00
2023-04-17T19:11:46.116Z,100286.38
2023-04-17T19:13:48.904Z,100275.50
2023-04-17T19:15:51.702Z,100282.72
2023-04-17T19:17:54.521Z,100277.03
2023-04-17T19:19:57.503Z,100276.31
2023-04-17T19:22:00.430Z,100273.38
2023-04-17T19:24:04.010Z,100273.16
2023-04-17T19:26:06.871Z,100272.13
2023-04-17T19:28:11.101Z,100273.88
2023-04-17T19:30:14.086Z,100268.69
2023-04-17T19:32:16.878Z,100270.91
2023-04-17T19:34:19.731Z,100273.66
2023-04-17T19:36:22.610Z,100267.66
2023-04-17T19:38:26.191Z,100268.78
2023-04-17T19:40:29.274Z,100266.03
2023-04-17T19:42:32.553Z,100265.72
2023-04-17T19:44:35.528Z,100261.63
2023-04-17T19:46:38.316Z,100260.81
2023-04-17T19:48:43.761Z,100259.22
2023-04-17T19:50:46.801Z,100260.31
2023-04-17T19:52:51.203Z,100263.06
2023-04-17T19:54:53.966Z,100259.81
2023-04-17T19:56:56.819Z,100252.41
2023-04-17T19:59:03.251Z,100258.69
2023-04-17T20:01:06.240Z,100256.75
2023-04-17T20:03:09.296Z,100258.69
2023-04-17T20:05:12.246Z,100259.50
2023-04-17T20:07:15.045Z,100256.25
2023-04-17T20:09:18.437Z,100257.38
2023-04-17T20:11:21.428Z,100261.22
2023-04-17T20:13:24.191Z,100258.81
2023-04-17T20:15:26.930Z,100259.09
2023-04-17T20:17:29.909Z,100256.34
2023-04-17T20:19:32.612Z,100253.69
2023-04-17T20:21:35.252Z,100248.50
2023-04-17T20:23:38.249Z,100256.56
2023-04-17T20:25:40.895Z,100246.66
2023-04-17T20:27:43.600Z,100257.97
2023-04-17T20:29:46.817Z,100254.41
2023-04-17T20:31:49.605Z,100254.19
2023-04-17T20:33:52.359Z,100259.69
2023-04-17T20:35:55.075Z,100252.56
2023-04-17T20:37:58.049Z,100242.78
2023-04-17T20:40:00.904Z,100256.81
2023-04-17T20:42:03.781Z,100241.25
2023-04-17T20:44:06.606Z,100245.94
2023-04-17T20:46:10.741Z,100250.91
2023-04-17T20:48:13.449Z,100248.16
2023-04-17T20:50:16.391Z,100244.28
2023-04-17T20:52:21.892Z,100237.97
2023-04-17T20:54:26.295Z,100240.16
2023-04-17T20:56:28.987Z,100243.19
2023-04-17T20:58:31.694Z,100237.41
2023-04-17T21:00:34.918Z,100231.59
2023-04-17T21:02:38.465Z,100237.06
2023-04-17T21:04:41.427Z,100237.41
2023-04-17T21:06:44.070Z,100233.81
2023-04-17T21:08:46.924Z,100238.78
2023-04-17T21:10:49.554Z,100226.19
2023-04-17T21:12:52.652Z,100225.91
2023-04-17T21:14:55.498Z,100229.75
2023-04-17T21:16:58.872Z,100230.06
2023-04-17T21:19:01.625Z,100231.16
2023-04-17T21:21:04.468Z,100222.41
2023-04-17T21:23:07.173Z,100224.63
2023-04-17T21:25:11.369Z,100221.59
2023-04-17T21:27:15.405Z,100225.66
2023-04-17T21:29:18.188Z,100221.81
2023-04-17T21:31:20.990Z,100214.06
2023-04-17T21:33:23.680Z,100220.06
2023-04-17T21:35:26.428Z,100220.31
2023-04-17T21:37:29.142Z,100211.78
2023-04-17T21:39:33.188Z,100212.88
2023-04-17T21:41:36.370Z,100216.41
2023-04-17T21:43:39.104Z,100217.84
2023-04-17T21:45:41.787Z,100210.84
2023-04-17T21:47:44.554Z,100214.91
2023-04-17T21:49:50.089Z,100207.47
2023-04-17T21:51:52.968Z,100202.88
2023-04-17T21:53:55.655Z,100207.06
2023-04-17T21:55:58.374Z,100196.94
2023-04-17T21:58:01.128Z,100201.94
2023-04-17T22:00:05.416Z,100208.63
2023-04-17T22:02:08.544Z,100194.69
2023-04-17T22:04:11.622Z,100195.31
2023-04-17T22:06:14.699Z,100199.75
2023-04-17T22:08:17.643Z,100197.13
2023-04-17T22:10:20.416Z,100198.81
2023-04-17T22:12:23.206Z,100203.88
2023-04-17T22:14:25.926Z,100190.56
2023-04-17T22:16:28.650Z,100201.00
2023-04-17T22:18:31.491Z,100194.47
2023-04-17T22:20:34.368Z,100185.53
2023-04-17T22:22:37.251Z,100189.47
2023-04-17T22:24:42.136Z,100195.56
2023-04-17T22:26:44.821Z,100185.47
2023-04-17T22:28:47.841Z,100189.13
2023-04-17T22:30:52.131Z,100187.25
2023-04-17T22:32:56.715Z,100186.81
2023-04-17T22:34:59.555Z,100187.19
2023-04-17T22:37:02.273Z,100187.88
2023-04-17T22:39:04.964Z,100188.47
2023-04-17T22:41:07.662Z,100183.28
2023-04-17T22:43:10.841Z,100188.03
2023-04-17T22:45:13.574Z,100180.38
2023-04-17T22:47:16.321Z,100193.03
2023-04-17T22:49:19.955Z,100173.94
2023-04-17T22:51:22.683Z,100178.59
2023-04-17T22:53:25.468Z,100185.78
2023-04-17T22:55:28.246Z,100172.69
2023-04-17T22:57:31.136Z,100172.97
2023-04-17T22:59:33.848Z,100175.69
2023-04-17T23:01:36.699Z,100175.69
2023-04-17T23:03:39.479Z,100173.56
2023-04-17T23:05:42.226Z,100179.84
2023-04-17T23:07:45.376Z,100175.50
2023-04-17T23:09:48.555Z,100175.50
2023-04-17T23:11:51.414Z,100176.28
2023-04-17T23:13:54.120Z,100172.75
2023-04-17T23:15:56.727Z,100173.56
2023-04-17T23:17:59.598Z,100166.47
2023-04-17T23:20:02.345Z,100172.22
2023-04-17T23:22:07.726Z,100166.81
2023-04-17T23:24:12.014Z,100173.63
2023-04-17T23:26:14.991Z,100166.81
2023-04-17T23:28:17.767Z,100175.63
2023-04-17T23:30:20.649Z,100171.84
2023-04-17T23:32:23.414Z,100169.47
2023-04-17T23:34:27.097Z,100168.41
2023-04-17T23:36:29.793Z,100171.22